Alfred, Maine
Current Conditions -  °F | °C
As of 1:15 PM on Friday 19 Dec 2014 (Local Time) from KSFM Reporting Station
Clear Clear  
Wind Chill: 39°   Ceiling: Unl
Heat Index: 39°   Visibility: 10mi
Dew Point: 21°   Wind: 3mph
Humidity: 49%   Direction: 290°WNW
Pressure: 29.92"   Gusts: NA
Location:  43.48°N, 70.72°W
Report Text: KSFM 191815Z AUTO 29003KT 10SM CLR 04/M06 A2992 RMK AO1
Loading
Personal Weather Stations






























Interactive Weather Map New forecast layout! Learn more

10-Day Weather Forecast

Advertisements
Track Severe Weather on mobile